If you wish to contribute or participate in the discussions about articles you are invited to join SKYbrary as a registered user

 Actions

Persian Gulf International Airport

From SKYbrary Wiki

OIBP
Airport
ICAO: OIBP – IATA: PGU
Summary
Name Persian Gulf International Airport
Region Middle East
Territory Iran IR.gif
Location Khyaroo, Bushehr
Serving Assaluyeh
Elevation 8.23 m
27 ft8.23 m
Coordinates 27° 23' 13.23" N, 52° 44' 2.11" E
Runways
Designator Length Width Surface ROPS
13/31 3997 m13,113.517 ft
45 m147.638 ft
ASP /


METAR
Observation OIBP 250530Z 30016KT CAVOK 24/11 Q1014 A2995
Station Persian Gulf International Airport
Date/Time 25 April 2019 05:30:00
Wind direction 300°
Wind speed 16 kts
Lowest cloud amount clouds and visibility OK
Temperature 24°C
Dew point 11°C
Humidity 44%
QNH 1014 hPa
Weather condition n/a

Airport serving Assalouyeh (Asaluyeh) in southern Iran.

Climatology

Hot Desert climate (Köppen climate classification BWh).

Maps

Terrain

Loading map...

Airport Layout

Loading map...


Accidents & Serious Incidents at or in vicinity of OIBP

None on SKYbrary